sensor_id;sensor_type;location;lat;lon;timestamp;P1;durP1;ratioP1;P2;durP2;ratioP2
22026;SDS011;11177;50.966;10.070;2023-04-24T00:01:57;4.28;;;2.30;;
22026;SDS011;11177;50.966;10.070;2023-04-24T00:04:25;3.65;;;2.22;;
22026;SDS011;11177;50.966;10.070;2023-04-24T00:06:53;4.45;;;2.05;;
22026;SDS011;11177;50.966;10.070;2023-04-24T00:09:23;6.07;;;2.30;;
22026;SDS011;11177;50.966;10.070;2023-04-24T00:11:50;4.78;;;2.10;;
22026;SDS011;11177;50.966;10.070;2023-04-24T00:14:17;3.20;;;1.80;;
22026;SDS011;11177;50.966;10.070;2023-04-24T00:16:44;3.65;;;1.70;;
22026;SDS011;11177;50.966;10.070;2023-04-24T00:19:11;2.63;;;1.60;;
22026;SDS011;11177;50.966;10.070;2023-04-24T00:21:39;1.30;;;1.20;;
22026;SDS011;11177;50.966;10.070;2023-04-24T00:24:07;2.70;;;1.50;;
22026;SDS011;11177;50.966;10.070;2023-04-24T00:26:35;2.05;;;1.55;;
22026;SDS011;11177;50.966;10.070;2023-04-24T00:29:02;2.13;;;1.50;;
22026;SDS011;11177;50.966;10.070;2023-04-24T00:31:29;3.58;;;1.60;;
22026;SDS011;11177;50.966;10.070;2023-04-24T00:33:56;2.35;;;1.70;;
22026;SDS011;11177;50.966;10.070;2023-04-24T00:36:22;2.65;;;1.30;;
22026;SDS011;11177;50.966;10.070;2023-04-24T00:38:49;2.38;;;1.35;;
22026;SDS011;11177;50.966;10.070;2023-04-24T00:41:16;3.55;;;1.30;;
22026;SDS011;11177;50.966;10.070;2023-04-24T00:43:43;2.38;;;1.40;;
22026;SDS011;11177;50.966;10.070;2023-04-24T00:46:10;1.52;;;1.20;;
22026;SDS011;11177;50.966;10.070;2023-04-24T00:48:38;1.30;;;1.20;;
22026;SDS011;11177;50.966;10.070;2023-04-24T00:51:05;1.30;;;1.20;;
22026;SDS011;11177;50.966;10.070;2023-04-24T00:53:33;1.98;;;1.30;;
22026;SDS011;11177;50.966;10.070;2023-04-24T00:56:00;3.05;;;1.27;;
22026;SDS011;11177;50.966;10.070;2023-04-24T00:58:26;1.60;;;1.40;;
22026;SDS011;11177;50.966;10.070;2023-04-24T01:00:54;1.65;;;1.35;;
22026;SDS011;11177;50.966;10.070;2023-04-24T01:03:22;1.92;;;1.38;;
22026;SDS011;11177;50.966;10.070;2023-04-24T01:05:49;1.70;;;1.27;;
22026;SDS011;11177;50.966;10.070;2023-04-24T01:08:16;1.63;;;1.15;;
22026;SDS011;11177;50.966;10.070;2023-04-24T01:10:43;2.17;;;1.50;;
22026;SDS011;11177;50.966;10.070;2023-04-24T01:13:10;1.60;;;1.50;;
22026;SDS011;11177;50.966;10.070;2023-04-24T01:15:37;2.03;;;1.17;;
22026;SDS011;11177;50.966;10.070;2023-04-24T01:20:57;2.42;;;1.50;;
22026;SDS011;11177;50.966;10.070;2023-04-24T01:23:25;2.03;;;1.40;;
22026;SDS011;11177;50.966;10.070;2023-04-24T01:25:54;2.53;;;1.45;;
22026;SDS011;11177;50.966;10.070;2023-04-24T01:28:21;2.97;;;1.38;;
22026;SDS011;11177;50.966;10.070;2023-04-24T01:30:48;2.15;;;1.50;;
22026;SDS011;11177;50.966;10.070;2023-04-24T01:33:15;1.50;;;1.25;;
22026;SDS011;11177;50.966;10.070;2023-04-24T01:35:42;3.20;;;1.20;;
22026;SDS011;11177;50.966;10.070;2023-04-24T01:38:09;3.35;;;1.70;;
22026;SDS011;11177;50.966;10.070;2023-04-24T01:40:36;2.40;;;1.52;;
22026;SDS011;11177;50.966;10.070;2023-04-24T01:43:03;3.58;;;1.83;;
22026;SDS011;11177;50.966;10.070;2023-04-24T01:45:31;2.08;;;1.30;;
22026;SDS011;11177;50.966;10.070;2023-04-24T01:47:58;2.42;;;1.38;;
22026;SDS011;11177;50.966;10.070;2023-04-24T01:50:25;3.78;;;1.60;;
22026;SDS011;11177;50.966;10.070;2023-04-24T01:52:52;4.57;;;1.73;;
22026;SDS011;11177;50.966;10.070;2023-04-24T01:55:19;5.22;;;1.73;;
22026;SDS011;11177;50.966;10.070;2023-04-24T01:57:46;3.80;;;1.60;;
22026;SDS011;11177;50.966;10.070;2023-04-24T02:00:13;2.83;;;1.38;;
22026;SDS011;11177;50.966;10.070;2023-04-24T02:02:40;2.50;;;1.40;;
22026;SDS011;11177;50.966;10.070;2023-04-24T02:05:12;1.77;;;1.30;;
22026;SDS011;11177;50.966;10.070;2023-04-24T02:07:39;1.95;;;1.20;;
22026;SDS011;11177;50.966;10.070;2023-04-24T02:10:06;1.83;;;1.33;;
22026;SDS011;11177;50.966;10.070;2023-04-24T02:12:33;1.33;;;1.17;;
22026;SDS011;11177;50.966;10.070;2023-04-24T02:15:00;3.08;;;1.27;;
22026;SDS011;11177;50.966;10.070;2023-04-24T02:17:27;1.20;;;1.10;;
22026;SDS011;11177;50.966;10.070;2023-04-24T02:19:54;5.40;;;1.35;;
22026;SDS011;11177;50.966;10.070;2023-04-24T02:22:21;3.92;;;1.52;;
22026;SDS011;11177;50.966;10.070;2023-04-24T02:24:48;1.50;;;1.23;;
22026;SDS011;11177;50.966;10.070;2023-04-24T02:27:15;3.10;;;1.30;;
22026;SDS011;11177;50.966;10.070;2023-04-24T02:29:42;1.38;;;1.27;;
22026;SDS011;11177;50.966;10.070;2023-04-24T02:32:10;2.00;;;1.35;;
22026;SDS011;11177;50.966;10.070;2023-04-24T02:34:38;1.92;;;1.40;;
22026;SDS011;11177;50.966;10.070;2023-04-24T02:37:05;1.40;;;1.25;;
22026;SDS011;11177;50.966;10.070;2023-04-24T02:39:32;2.55;;;1.73;;
22026;SDS011;11177;50.966;10.070;2023-04-24T02:41:59;2.80;;;1.38;;
22026;SDS011;11177;50.966;10.070;2023-04-24T02:44:26;2.90;;;1.50;;
22026;SDS011;11177;50.966;10.070;2023-04-24T02:46:53;2.45;;;1.33;;
22026;SDS011;11177;50.966;10.070;2023-04-24T02:49:20;3.28;;;1.48;;
22026;SDS011;11177;50.966;10.070;2023-04-24T02:51:46;3.50;;;1.30;;
22026;SDS011;11177;50.966;10.070;2023-04-24T02:54:13;3.10;;;1.50;;
22026;SDS011;11177;50.966;10.070;2023-04-24T02:56:40;2.13;;;1.20;;
22026;SDS011;11177;50.966;10.070;2023-04-24T02:59:07;1.98;;;1.40;;
22026;SDS011;11177;50.966;10.070;2023-04-24T03:01:34;3.30;;;1.33;;
22026;SDS011;11177;50.966;10.070;2023-04-24T03:04:02;2.15;;;1.00;;
22026;SDS011;11177;50.966;10.070;2023-04-24T03:06:29;1.80;;;1.20;;
22026;SDS011;11177;50.966;10.070;2023-04-24T03:08:57;3.72;;;1.33;;
22026;SDS011;11177;50.966;10.070;2023-04-24T03:11:24;1.77;;;1.20;;
22026;SDS011;11177;50.966;10.070;2023-04-24T03:13:51;1.38;;;1.27;;
22026;SDS011;11177;50.966;10.070;2023-04-24T03:16:18;1.67;;;1.40;;
22026;SDS011;11177;50.966;10.070;2023-04-24T03:18:45;3.95;;;1.15;;
22026;SDS011;11177;50.966;10.070;2023-04-24T03:21:12;1.40;;;1.30;;
22026;SDS011;11177;50.966;10.070;2023-04-24T03:23:39;1.92;;;1.20;;
22026;SDS011;11177;50.966;10.070;2023-04-24T03:26:06;2.40;;;1.23;;
22026;SDS011;11177;50.966;10.070;2023-04-24T03:28:33;1.27;;;1.05;;
22026;SDS011;11177;50.966;10.070;2023-04-24T03:30:59;2.58;;;1.10;;
22026;SDS011;11177;50.966;10.070;2023-04-24T03:33:26;1.27;;;1.08;;
22026;SDS011;11177;50.966;10.070;2023-04-24T03:35:53;1.90;;;0.95;;
22026;SDS011;11177;50.966;10.070;2023-04-24T03:38:20;2.05;;;1.27;;
22026;SDS011;11177;50.966;10.070;2023-04-24T03:40:47;3.97;;;1.10;;
22026;SDS011;11177;50.966;10.070;2023-04-24T03:43:14;2.92;;;1.20;;
22026;SDS011;11177;50.966;10.070;2023-04-24T03:45:41;2.65;;;1.30;;
22026;SDS011;11177;50.966;10.070;2023-04-24T03:48:08;4.47;;;1.40;;
22026;SDS011;11177;50.966;10.070;2023-04-24T03:50:35;4.03;;;1.10;;
22026;SDS011;11177;50.966;10.070;2023-04-24T03:53:02;3.90;;;1.10;;
22026;SDS011;11177;50.966;10.070;2023-04-24T03:55:29;3.80;;;1.20;;
22026;SDS011;11177;50.966;10.070;2023-04-24T03:57:56;2.33;;;1.13;;
22026;SDS011;11177;50.966;10.070;2023-04-24T04:00:22;5.88;;;1.45;;
22026;SDS011;11177;50.966;10.070;2023-04-24T04:02:49;2.45;;;1.10;;
22026;SDS011;11177;50.966;10.070;2023-04-24T04:05:17;1.92;;;1.20;;
22026;SDS011;11177;50.966;10.070;2023-04-24T04:07:43;2.83;;;0.88;;
22026;SDS011;11177;50.966;10.070;2023-04-24T04:10:11;1.73;;;0.90;;
22026;SDS011;11177;50.966;10.070;2023-04-24T04:12:37;2.25;;;1.40;;
22026;SDS011;11177;50.966;10.070;2023-04-24T04:15:05;2.92;;;1.10;;
22026;SDS011;11177;50.966;10.070;2023-04-24T04:17:33;3.88;;;1.20;;
22026;SDS011;11177;50.966;10.070;2023-04-24T04:20:00;4.65;;;1.45;;
22026;SDS011;11177;50.966;10.070;2023-04-24T04:22:27;4.85;;;1.30;;
22026;SDS011;11177;50.966;10.070;2023-04-24T04:24:54;3.70;;;1.40;;
22026;SDS011;11177;50.966;10.070;2023-04-24T04:27:21;5.10;;;1.60;;
22026;SDS011;11177;50.966;10.070;2023-04-24T04:29:48;2.35;;;1.33;;
22026;SDS011;11177;50.966;10.070;2023-04-24T04:32:15;1.38;;;1.20;;
22026;SDS011;11177;50.966;10.070;2023-04-24T04:34:42;2.35;;;1.30;;
22026;SDS011;11177;50.966;10.070;2023-04-24T04:37:12;2.13;;;1.25;;
22026;SDS011;11177;50.966;10.070;2023-04-24T04:39:39;3.67;;;1.35;;
22026;SDS011;11177;50.966;10.070;2023-04-24T04:42:06;4.28;;;1.02;;
22026;SDS011;11177;50.966;10.070;2023-04-24T04:44:33;3.85;;;1.20;;
22026;SDS011;11177;50.966;10.070;2023-04-24T04:47:02;1.67;;;1.00;;
22026;SDS011;11177;50.966;10.070;2023-04-24T04:49:33;2.60;;;1.10;;
22026;SDS011;11177;50.966;10.070;2023-04-24T04:52:01;2.00;;;1.05;;
22026;SDS011;11177;50.966;10.070;2023-04-24T04:54:28;3.55;;;1.25;;
22026;SDS011;11177;50.966;10.070;2023-04-24T04:56:55;3.55;;;1.45;;
22026;SDS011;11177;50.966;10.070;2023-04-24T04:59:22;2.80;;;1.48;;
22026;SDS011;11177;50.966;10.070;2023-04-24T05:01:49;6.75;;;1.10;;
22026;SDS011;11177;50.966;10.070;2023-04-24T05:04:17;4.70;;;1.63;;
22026;SDS011;11177;50.966;10.070;2023-04-24T05:06:45;2.22;;;1.17;;
22026;SDS011;11177;50.966;10.070;2023-04-24T05:09:13;1.70;;;1.10;;
22026;SDS011;11177;50.966;10.070;2023-04-24T05:11:41;1.65;;;1.10;;
22026;SDS011;11177;50.966;10.070;2023-04-24T05:14:08;1.48;;;1.10;;
22026;SDS011;11177;50.966;10.070;2023-04-24T05:16:38;2.22;;;1.00;;
22026;SDS011;11177;50.966;10.070;2023-04-24T05:19:07;2.30;;;1.13;;
22026;SDS011;11177;50.966;10.070;2023-04-24T05:21:36;1.50;;;1.00;;
22026;SDS011;11177;50.966;10.070;2023-04-24T05:24:04;2.35;;;1.33;;
22026;SDS011;11177;50.966;10.070;2023-04-24T05:26:31;1.30;;;1.20;;
22026;SDS011;11177;50.966;10.070;2023-04-24T05:28:58;2.13;;;1.10;;
22026;SDS011;11177;50.966;10.070;2023-04-24T05:31:25;1.58;;;1.20;;
22026;SDS011;11177;50.966;10.070;2023-04-24T05:33:52;1.85;;;1.10;;
22026;SDS011;11177;50.966;10.070;2023-04-24T05:36:19;3.05;;;1.08;;
22026;SDS011;11177;50.966;10.070;2023-04-24T05:38:47;1.67;;;1.00;;
22026;SDS011;11177;50.966;10.070;2023-04-24T05:41:18;1.50;;;1.02;;
22026;SDS011;11177;50.966;10.070;2023-04-24T05:43:50;0.95;;;0.90;;
22026;SDS011;11177;50.966;10.070;2023-04-24T05:46:18;1.73;;;1.00;;
22026;SDS011;11177;50.966;10.070;2023-04-24T05:48:48;2.22;;;0.80;;
22026;SDS011;11177;50.966;10.070;2023-04-24T05:51:15;1.23;;;0.90;;
22026;SDS011;11177;50.966;10.070;2023-04-24T05:53:41;0.95;;;0.95;;
22026;SDS011;11177;50.966;10.070;2023-04-24T05:56:11;4.95;;;1.25;;
22026;SDS011;11177;50.966;10.070;2023-04-24T05:58:40;2.45;;;1.05;;
22026;SDS011;11177;50.966;10.070;2023-04-24T06:01:09;1.75;;;1.23;;
22026;SDS011;11177;50.966;10.070;2023-04-24T06:03:36;1.00;;;0.90;;
22026;SDS011;11177;50.966;10.070;2023-04-24T06:06:03;2.35;;;1.20;;
22026;SDS011;11177;50.966;10.070;2023-04-24T06:08:30;1.23;;;1.10;;
22026;SDS011;11177;50.966;10.070;2023-04-24T06:10:57;1.10;;;1.00;;
22026;SDS011;11177;50.966;10.070;2023-04-24T06:13:24;1.17;;;1.00;;
22026;SDS011;11177;50.966;10.070;2023-04-24T06:15:52;1.63;;;1.00;;
22026;SDS011;11177;50.966;10.070;2023-04-24T06:18:19;1.30;;;1.20;;
22026;SDS011;11177;50.966;10.070;2023-04-24T06:20:46;1.50;;;1.40;;
22026;SDS011;11177;50.966;10.070;2023-04-24T06:23:14;1.42;;;0.95;;
22026;SDS011;11177;50.966;10.070;2023-04-24T06:25:41;3.28;;;1.40;;
22026;SDS011;11177;50.966;10.070;2023-04-24T06:28:09;2.45;;;1.20;;
22026;SDS011;11177;50.966;10.070;2023-04-24T06:30:37;1.02;;;0.90;;
22026;SDS011;11177;50.966;10.070;2023-04-24T06:33:04;1.17;;;1.08;;
22026;SDS011;11177;50.966;10.070;2023-04-24T06:35:45;0.95;;;0.95;;
22026;SDS011;11177;50.966;10.070;2023-04-24T06:38:13;0.98;;;0.90;;
22026;SDS011;11177;50.966;10.070;2023-04-24T06:40:40;1.88;;;1.20;;
22026;SDS011;11177;50.966;10.070;2023-04-24T06:43:10;1.08;;;1.08;;
22026;SDS011;11177;50.966;10.070;2023-04-24T06:45:38;1.35;;;1.20;;
22026;SDS011;11177;50.966;10.070;2023-04-24T06:48:06;2.58;;;1.00;;
22026;SDS011;11177;50.966;10.070;2023-04-24T06:50:33;1.23;;;1.10;;
22026;SDS011;11177;50.966;10.070;2023-04-24T06:53:01;1.30;;;1.20;;
22026;SDS011;11177;50.966;10.070;2023-04-24T06:55:28;2.88;;;0.90;;
22026;SDS011;11177;50.966;10.070;2023-04-24T06:57:55;1.58;;;1.10;;
22026;SDS011;11177;50.966;10.070;2023-04-24T07:00:22;1.67;;;1.10;;
22026;SDS011;11177;50.966;10.070;2023-04-24T07:02:51;1.40;;;1.30;;
22026;SDS011;11177;50.966;10.070;2023-04-24T07:05:19;2.67;;;1.17;;
22026;SDS011;11177;50.966;10.070;2023-04-24T07:07:47;1.75;;;1.20;;
22026;SDS011;11177;50.966;10.070;2023-04-24T07:10:14;1.60;;;1.00;;
22026;SDS011;11177;50.966;10.070;2023-04-24T07:12:41;1.30;;;1.20;;
22026;SDS011;11177;50.966;10.070;2023-04-24T07:15:08;1.27;;;1.17;;
22026;SDS011;11177;50.966;10.070;2023-04-24T07:17:36;4.65;;;1.20;;
22026;SDS011;11177;50.966;10.070;2023-04-24T07:20:05;1.50;;;1.17;;
22026;SDS011;11177;50.966;10.070;2023-04-24T07:22:34;2.05;;;1.33;;
22026;SDS011;11177;50.966;10.070;2023-04-24T07:25:01;1.40;;;1.27;;
22026;SDS011;11177;50.966;10.070;2023-04-24T07:27:29;1.45;;;1.20;;
22026;SDS011;11177;50.966;10.070;2023-04-24T07:29:56;1.50;;;1.20;;
22026;SDS011;11177;50.966;10.070;2023-04-24T07:32:22;1.65;;;1.35;;
22026;SDS011;11177;50.966;10.070;2023-04-24T07:34:50;1.52;;;1.42;;
22026;SDS011;11177;50.966;10.070;2023-04-24T07:37:17;2.63;;;1.50;;
22026;SDS011;11177;50.966;10.070;2023-04-24T07:39:44;2.20;;;1.60;;
22026;SDS011;11177;50.966;10.070;2023-04-24T07:42:11;1.40;;;1.23;;
22026;SDS011;11177;50.966;10.070;2023-04-24T07:44:39;1.50;;;1.40;;
22026;SDS011;11177;50.966;10.070;2023-04-24T07:47:06;1.67;;;1.48;;
22026;SDS011;11177;50.966;10.070;2023-04-24T07:49:33;2.13;;;1.42;;
22026;SDS011;11177;50.966;10.070;2023-04-24T07:52:01;1.40;;;1.30;;
22026;SDS011;11177;50.966;10.070;2023-04-24T07:54:29;5.03;;;1.50;;
22026;SDS011;11177;50.966;10.070;2023-04-24T07:56:56;1.70;;;1.25;;
22026;SDS011;11177;50.966;10.070;2023-04-24T07:59:23;3.58;;;1.60;;
22026;SDS011;11177;50.966;10.070;2023-04-24T08:01:51;2.95;;;1.63;;
22026;SDS011;11177;50.966;10.070;2023-04-24T08:04:18;2.58;;;1.73;;
22026;SDS011;11177;50.966;10.070;2023-04-24T08:06:48;2.00;;;1.80;;
22026;SDS011;11177;50.966;10.070;2023-04-24T08:09:15;2.35;;;1.80;;
22026;SDS011;11177;50.966;10.070;2023-04-24T08:11:42;2.42;;;2.00;;
22026;SDS011;11177;50.966;10.070;2023-04-24T08:14:10;3.17;;;1.80;;
22026;SDS011;11177;50.966;10.070;2023-04-24T08:16:38;1.85;;;1.50;;
22026;SDS011;11177;50.966;10.070;2023-04-24T08:19:05;1.60;;;1.50;;
22026;SDS011;11177;50.966;10.070;2023-04-24T08:21:33;2.25;;;1.40;;
22026;SDS011;11177;50.966;10.070;2023-04-24T08:24:00;1.38;;;1.27;;
22026;SDS011;11177;50.966;10.070;2023-04-24T08:26:31;1.40;;;1.30;;
22026;SDS011;11177;50.966;10.070;2023-04-24T08:28:58;2.40;;;1.92;;
22026;SDS011;11177;50.966;10.070;2023-04-24T08:31:25;2.17;;;1.80;;
22026;SDS011;11177;50.966;10.070;2023-04-24T08:33:53;4.95;;;1.38;;
22026;SDS011;11177;50.966;10.070;2023-04-24T08:36:20;1.45;;;1.30;;
22026;SDS011;11177;50.966;10.070;2023-04-24T08:38:51;1.58;;;1.48;;
22026;SDS011;11177;50.966;10.070;2023-04-24T08:41:19;2.45;;;1.45;;
22026;SDS011;11177;50.966;10.070;2023-04-24T08:43:46;1.60;;;1.50;;
22026;SDS011;11177;50.966;10.070;2023-04-24T08:46:13;1.80;;;1.70;;
22026;SDS011;11177;50.966;10.070;2023-04-24T08:48:43;3.05;;;1.92;;
22026;SDS011;11177;50.966;10.070;2023-04-24T08:51:10;2.78;;;2.13;;
22026;SDS011;11177;50.966;10.070;2023-04-24T08:53:37;1.80;;;1.70;;
22026;SDS011;11177;50.966;10.070;2023-04-24T08:56:04;3.08;;;2.10;;
22026;SDS011;11177;50.966;10.070;2023-04-24T08:58:31;2.75;;;2.10;;
22026;SDS011;11177;50.966;10.070;2023-04-24T09:00:58;2.92;;;2.15;;
22026;SDS011;11177;50.966;10.070;2023-04-24T09:03:26;2.28;;;2.08;;
22026;SDS011;11177;50.966;10.070;2023-04-24T09:05:55;2.13;;;1.92;;
22026;SDS011;11177;50.966;10.070;2023-04-24T09:08:23;2.53;;;1.80;;
22026;SDS011;11177;50.966;10.070;2023-04-24T09:10:52;2.20;;;2.00;;
22026;SDS011;11177;50.966;10.070;2023-04-24T09:13:19;3.78;;;2.58;;
22026;SDS011;11177;50.966;10.070;2023-04-24T09:15:47;2.83;;;2.28;;
22026;SDS011;11177;50.966;10.070;2023-04-24T09:18:14;3.08;;;2.30;;
22026;SDS011;11177;50.966;10.070;2023-04-24T09:23:29;3.00;;;2.10;;
22026;SDS011;11177;50.966;10.070;2023-04-24T09:25:58;4.35;;;2.20;;
22026;SDS011;11177;50.966;10.070;2023-04-24T09:28:32;2.30;;;2.08;;
22026;SDS011;11177;50.966;10.070;2023-04-24T09:31:05;3.13;;;2.55;;
22026;SDS011;11177;50.966;10.070;2023-04-24T09:33:37;2.80;;;2.00;;
22026;SDS011;11177;50.966;10.070;2023-04-24T09:36:05;2.58;;;2.00;;
22026;SDS011;11177;50.966;10.070;2023-04-24T09:38:33;2.85;;;2.65;;
22026;SDS011;11177;50.966;10.070;2023-04-24T09:41:03;3.63;;;2.00;;
22026;SDS011;11177;50.966;10.070;2023-04-24T09:43:33;4.35;;;1.90;;
22026;SDS011;11177;50.966;10.070;2023-04-24T09:46:07;3.47;;;2.17;;
22026;SDS011;11177;50.966;10.070;2023-04-24T09:48:36;3.42;;;2.20;;
22026;SDS011;11177;50.966;10.070;2023-04-24T09:51:04;2.80;;;2.30;;
22026;SDS011;11177;50.966;10.070;2023-04-24T09:53:44;3.58;;;2.10;;
22026;SDS011;11177;50.966;10.070;2023-04-24T09:56:12;5.47;;;2.17;;
22026;SDS011;11177;50.966;10.070;2023-04-24T09:58:40;3.40;;;2.33;;
22026;SDS011;11177;50.966;10.070;2023-04-24T10:01:07;3.10;;;2.30;;
22026;SDS011;11177;50.966;10.070;2023-04-24T10:03:34;3.60;;;2.20;;
22026;SDS011;11177;50.966;10.070;2023-04-24T10:06:03;4.28;;;2.20;;
22026;SDS011;11177;50.966;10.070;2023-04-24T10:08:36;3.38;;;2.28;;
22026;SDS011;11177;50.966;10.070;2023-04-24T10:11:04;5.72;;;2.30;;
22026;SDS011;11177;50.966;10.070;2023-04-24T10:13:32;3.63;;;2.25;;
22026;SDS011;11177;50.966;10.070;2023-04-24T10:15:59;2.28;;;2.00;;
22026;SDS011;11177;50.966;10.070;2023-04-24T10:18:28;3.28;;;2.30;;
22026;SDS011;11177;50.966;10.070;2023-04-24T10:20:55;7.93;;;2.13;;
22026;SDS011;11177;50.966;10.070;2023-04-24T10:23:23;2.00;;;1.80;;
22026;SDS011;11177;50.966;10.070;2023-04-24T10:25:51;2.15;;;1.45;;
22026;SDS011;11177;50.966;10.070;2023-04-24T10:28:19;1.98;;;1.60;;
22026;SDS011;11177;50.966;10.070;2023-04-24T10:30:47;2.30;;;1.55;;
22026;SDS011;11177;50.966;10.070;2023-04-24T10:33:15;1.95;;;1.63;;
22026;SDS011;11177;50.966;10.070;2023-04-24T10:35:44;3.35;;;1.70;;
22026;SDS011;11177;50.966;10.070;2023-04-24T10:38:15;3.55;;;1.70;;
22026;SDS011;11177;50.966;10.070;2023-04-24T10:40:44;2.53;;;1.60;;
22026;SDS011;11177;50.966;10.070;2023-04-24T10:43:13;2.50;;;1.58;;
22026;SDS011;11177;50.966;10.070;2023-04-24T10:45:59;2.47;;;1.80;;
22026;SDS011;11177;50.966;10.070;2023-04-24T10:48:31;1.98;;;1.75;;
22026;SDS011;11177;50.966;10.070;2023-04-24T10:50:59;2.38;;;1.58;;
22026;SDS011;11177;50.966;10.070;2023-04-24T10:53:27;3.85;;;2.00;;
22026;SDS011;11177;50.966;10.070;2023-04-24T10:56:03;1.80;;;1.65;;
22026;SDS011;11177;50.966;10.070;2023-04-24T10:58:38;2.85;;;1.85;;
22026;SDS011;11177;50.966;10.070;2023-04-24T11:01:26;1.98;;;1.70;;
22026;SDS011;11177;50.966;10.070;2023-04-24T11:04:01;1.85;;;1.70;;
22026;SDS011;11177;50.966;10.070;2023-04-24T11:06:30;1.90;;;1.80;;
22026;SDS011;11177;50.966;10.070;2023-04-24T11:09:05;2.55;;;1.65;;
22026;SDS011;11177;50.966;10.070;2023-04-24T11:11:35;3.78;;;1.60;;
22026;SDS011;11177;50.966;10.070;2023-04-24T11:14:04;4.38;;;1.30;;
22026;SDS011;11177;50.966;10.070;2023-04-24T11:16:51;1.40;;;1.30;;
22026;SDS011;11177;50.966;10.070;2023-04-24T11:21:58;1.35;;;1.17;;
22026;SDS011;11177;50.966;10.070;2023-04-24T11:24:30;1.30;;;1.20;;
22026;SDS011;11177;50.966;10.070;2023-04-24T11:27:12;1.77;;;1.48;;
22026;SDS011;11177;50.966;10.070;2023-04-24T11:29:47;2.95;;;1.75;;
22026;SDS011;11177;50.966;10.070;2023-04-24T11:35:20;3.05;;;1.65;;
22026;SDS011;11177;50.966;10.070;2023-04-24T11:37:48;2.17;;;1.40;;
22026;SDS011;11177;50.966;10.070;2023-04-24T11:40:20;3.60;;;1.40;;
22026;SDS011;11177;50.966;10.070;2023-04-24T11:42:50;2.15;;;1.45;;
22026;SDS011;11177;50.966;10.070;2023-04-24T11:45:18;1.08;;;1.00;;
22026;SDS011;11177;50.966;10.070;2023-04-24T11:47:48;1.60;;;1.17;;
22026;SDS011;11177;50.966;10.070;2023-04-24T11:50:15;1.60;;;0.90;;
22026;SDS011;11177;50.966;10.070;2023-04-24T11:52:45;1.23;;;1.05;;
22026;SDS011;11177;50.966;10.070;2023-04-24T11:57:58;1.77;;;0.93;;
22026;SDS011;11177;50.966;10.070;2023-04-24T12:00:27;1.15;;;1.05;;
22026;SDS011;11177;50.966;10.070;2023-04-24T12:03:05;1.20;;;0.70;;
22026;SDS011;11177;50.966;10.070;2023-04-24T12:05:35;1.20;;;0.60;;
22026;SDS011;11177;50.966;10.070;2023-04-24T12:08:03;1.02;;;0.85;;
22026;SDS011;11177;50.966;10.070;2023-04-24T12:10:32;0.77;;;0.73;;
22026;SDS011;11177;50.966;10.070;2023-04-24T12:12:59;2.40;;;1.02;;
22026;SDS011;11177;50.966;10.070;2023-04-24T12:15:27;1.73;;;0.80;;
22026;SDS011;11177;50.966;10.070;2023-04-24T12:17:55;2.35;;;1.08;;
22026;SDS011;11177;50.966;10.070;2023-04-24T12:20:23;0.63;;;0.52;;
22026;SDS011;11177;50.966;10.070;2023-04-24T12:22:55;0.28;;;0.20;;
22026;SDS011;11177;50.966;10.070;2023-04-24T12:25:27;0.50;;;0.50;;
22026;SDS011;11177;50.966;10.070;2023-04-24T12:30:31;0.40;;;0.40;;
22026;SDS011;11177;50.966;10.070;2023-04-24T12:32:59;0.40;;;0.30;;
22026;SDS011;11177;50.966;10.070;2023-04-24T12:35:27;0.93;;;0.10;;
22026;SDS011;11177;50.966;10.070;2023-04-24T12:37:55;0.30;;;0.20;;
22026;SDS011;11177;50.966;10.070;2023-04-24T12:40:24;0.20;;;0.20;;
22026;SDS011;11177;50.966;10.070;2023-04-24T12:42:52;0.30;;;0.30;;
22026;SDS011;11177;50.966;10.070;2023-04-24T12:45:21;0.22;;;0.10;;
22026;SDS011;11177;50.966;10.070;2023-04-24T12:47:50;2.28;;;0.30;;
22026;SDS011;11177;50.966;10.070;2023-04-24T12:50:17;0.10;;;0.10;;
22026;SDS011;11177;50.966;10.070;2023-04-24T12:52:44;0.15;;;0.15;;
22026;SDS011;11177;50.966;10.070;2023-04-24T12:55:11;0.15;;;0.15;;
22026;SDS011;11177;50.966;10.070;2023-04-24T12:57:39;0.10;;;0.10;;
22026;SDS011;11177;50.966;10.070;2023-04-24T13:00:07;0.17;;;0.10;;
22026;SDS011;11177;50.966;10.070;2023-04-24T13:02:34;0.15;;;0.10;;
22026;SDS011;11177;50.966;10.070;2023-04-24T13:05:02;0.43;;;0.10;;
22026;SDS011;11177;50.966;10.070;2023-04-24T13:07:29;1.75;;;0.10;;
22026;SDS011;11177;50.966;10.070;2023-04-24T13:09:56;0.10;;;0.10;;
22026;SDS011;11177;50.966;10.070;2023-04-24T13:12:24;0.20;;;0.10;;
22026;SDS011;11177;50.966;10.070;2023-04-24T13:14:52;0.30;;;0.10;;
22026;SDS011;11177;50.966;10.070;2023-04-24T13:17:20;0.00;;;0.00;;
22026;SDS011;11177;50.966;10.070;2023-04-24T13:19:49;0.10;;;0.10;;
22026;SDS011;11177;50.966;10.070;2023-04-24T13:22:17;1.00;;;0.70;;
22026;SDS011;11177;50.966;10.070;2023-04-24T13:24:45;0.63;;;0.30;;
22026;SDS011;11177;50.966;10.070;2023-04-24T13:27:12;0.32;;;0.25;;
22026;SDS011;11177;50.966;10.070;2023-04-24T13:29:39;0.88;;;0.28;;
22026;SDS011;11177;50.966;10.070;2023-04-24T13:32:06;0.20;;;0.20;;
22026;SDS011;11177;50.966;10.070;2023-04-24T13:34:33;0.40;;;0.40;;
22026;SDS011;11177;50.966;10.070;2023-04-24T13:37:01;0.40;;;0.40;;
22026;SDS011;11177;50.966;10.070;2023-04-24T13:39:30;0.82;;;0.40;;
22026;SDS011;11177;50.966;10.070;2023-04-24T13:41:58;0.30;;;0.30;;
22026;SDS011;11177;50.966;10.070;2023-04-24T13:44:28;0.50;;;0.40;;
22026;SDS011;11177;50.966;10.070;2023-04-24T13:46:55;0.40;;;0.40;;
22026;SDS011;11177;50.966;10.070;2023-04-24T13:49:24;0.50;;;0.50;;
22026;SDS011;11177;50.966;10.070;2023-04-24T13:51:52;0.45;;;0.45;;
22026;SDS011;11177;50.966;10.070;2023-04-24T13:54:20;1.30;;;0.80;;
22026;SDS011;11177;50.966;10.070;2023-04-24T13:56:47;1.50;;;1.10;;
22026;SDS011;11177;50.966;10.070;2023-04-24T13:59:14;2.75;;;1.42;;
22026;SDS011;11177;50.966;10.070;2023-04-24T14:01:41;0.70;;;0.70;;
22026;SDS011;11177;50.966;10.070;2023-04-24T14:04:08;1.13;;;0.70;;
22026;SDS011;11177;50.966;10.070;2023-04-24T14:06:35;0.70;;;0.70;;
22026;SDS011;11177;50.966;10.070;2023-04-24T14:09:02;0.88;;;0.88;;
22026;SDS011;11177;50.966;10.070;2023-04-24T14:11:30;0.60;;;0.60;;
22026;SDS011;11177;50.966;10.070;2023-04-24T14:13:57;0.73;;;0.70;;
22026;SDS011;11177;50.966;10.070;2023-04-24T14:16:24;1.33;;;0.85;;
22026;SDS011;11177;50.966;10.070;2023-04-24T14:18:51;0.98;;;0.90;;
22026;SDS011;11177;50.966;10.070;2023-04-24T14:21:18;1.00;;;0.70;;
22026;SDS011;11177;50.966;10.070;2023-04-24T14:23:45;1.65;;;1.08;;
22026;SDS011;11177;50.966;10.070;2023-04-24T14:26:12;1.02;;;0.93;;
22026;SDS011;11177;50.966;10.070;2023-04-24T14:28:41;1.60;;;1.33;;
22026;SDS011;11177;50.966;10.070;2023-04-24T14:31:10;1.10;;;1.00;;
22026;SDS011;11177;50.966;10.070;2023-04-24T14:33:38;1.20;;;1.10;;
22026;SDS011;11177;50.966;10.070;2023-04-24T14:36:04;1.15;;;1.05;;
22026;SDS011;11177;50.966;10.070;2023-04-24T14:38:32;1.40;;;1.10;;
22026;SDS011;11177;50.966;10.070;2023-04-24T14:40:59;1.20;;;1.10;;
22026;SDS011;11177;50.966;10.070;2023-04-24T14:43:29;4.18;;;1.63;;
22026;SDS011;11177;50.966;10.070;2023-04-24T14:45:56;1.30;;;1.20;;
22026;SDS011;11177;50.966;10.070;2023-04-24T14:48:24;1.80;;;1.13;;
22026;SDS011;11177;50.966;10.070;2023-04-24T14:50:51;1.30;;;1.20;;
22026;SDS011;11177;50.966;10.070;2023-04-24T14:53:18;1.60;;;1.50;;
22026;SDS011;11177;50.966;10.070;2023-04-24T14:55:45;2.95;;;2.03;;